createdAt,value
2017-11-22T00:01:36.502Z,2.40
2017-11-22T00:04:04.029Z,2.72
2017-11-22T00:06:31.601Z,2.65
2017-11-22T00:08:59.165Z,2.65
2017-11-22T00:11:26.733Z,2.78
2017-11-22T00:13:54.293Z,2.62
2017-11-22T00:16:21.854Z,2.65
2017-11-22T00:18:49.432Z,2.75
2017-11-22T00:21:16.967Z,2.85
2017-11-22T00:23:44.546Z,3.15
2017-11-22T00:26:12.110Z,2.70
2017-11-22T00:28:39.675Z,2.45
2017-11-22T00:31:07.212Z,2.60
2017-11-22T00:33:34.785Z,2.50
2017-11-22T00:36:02.363Z,2.33
2017-11-22T00:38:29.889Z,2.92
2017-11-22T00:40:57.515Z,2.60
2017-11-22T00:43:25.084Z,2.60
2017-11-22T00:45:52.655Z,2.65
2017-11-22T00:48:20.200Z,3.10
2017-11-22T00:50:47.726Z,3.78
2017-11-22T00:53:16.066Z,3.40
2017-11-22T00:55:43.607Z,3.10
2017-11-22T00:58:11.177Z,3.65
2017-11-22T01:00:38.661Z,3.30
2017-11-22T01:03:06.229Z,4.35
2017-11-22T01:05:33.838Z,5.00
2017-11-22T01:08:01.397Z,3.90
2017-11-22T01:10:28.918Z,4.53
2017-11-22T01:12:57.220Z,4.55
2017-11-22T01:15:24.788Z,5.10
2017-11-22T01:17:52.351Z,5.40
2017-11-22T01:20:19.957Z,5.93
2017-11-22T01:22:47.532Z,5.72
2017-11-22T01:25:15.070Z,6.05
2017-11-22T01:27:42.639Z,5.53
2017-11-22T01:30:10.215Z,6.15
2017-11-22T01:32:37.753Z,6.32
2017-11-22T01:35:05.303Z,6.20
2017-11-22T01:37:32.879Z,6.93
2017-11-22T01:40:00.467Z,6.60
2017-11-22T01:42:28.044Z,6.35
2017-11-22T01:44:55.665Z,6.55
2017-11-22T01:47:23.205Z,7.50
2017-11-22T01:49:50.777Z,7.57
2017-11-22T01:52:18.364Z,6.87
2017-11-22T01:54:45.905Z,7.40
2017-11-22T01:57:13.476Z,6.40
2017-11-22T01:59:41.790Z,7.30
2017-11-22T02:02:09.353Z,6.72
2017-11-22T02:04:36.915Z,6.97
2017-11-22T02:07:04.490Z,6.10
2017-11-22T02:09:32.062Z,7.85
2017-11-22T02:11:59.629Z,6.70
2017-11-22T02:14:27.191Z,6.68
2017-11-22T02:16:54.762Z,7.00
2017-11-22T02:19:22.327Z,7.40
2017-11-22T02:21:49.896Z,6.53
2017-11-22T02:24:17.464Z,6.82
2017-11-22T02:26:45.038Z,6.35
2017-11-22T02:29:12.600Z,6.55
2017-11-22T02:31:40.184Z,6.37
2017-11-22T02:34:07.769Z,6.55
2017-11-22T02:36:35.340Z,6.30
2017-11-22T02:39:02.925Z,6.85
2017-11-22T02:41:31.211Z,7.15
2017-11-22T02:43:58.823Z,6.00
2017-11-22T02:46:26.382Z,6.87
2017-11-22T02:48:53.933Z,7.75
2017-11-22T02:51:21.474Z,7.20
2017-11-22T02:53:49.082Z,7.47
2017-11-22T02:56:16.675Z,6.85
2017-11-22T02:58:45.009Z,8.00
2017-11-22T03:01:12.550Z,6.30
2017-11-22T03:03:40.118Z,6.72
2017-11-22T03:06:07.692Z,6.20
2017-11-22T03:08:35.228Z,7.25
2017-11-22T03:11:02.765Z,6.30
2017-11-22T03:13:30.337Z,6.72
2017-11-22T03:15:57.898Z,6.50
2017-11-22T03:18:25.438Z,6.97
2017-11-22T03:20:53.025Z,6.62
2017-11-22T03:23:20.585Z,6.25
2017-11-22T03:25:48.114Z,6.00
2017-11-22T03:28:15.706Z,6.80
2017-11-22T03:30:43.277Z,7.03
2017-11-22T03:33:10.872Z,6.10
2017-11-22T03:35:38.463Z,6.53
2017-11-22T03:38:06.025Z,6.07
2017-11-22T03:40:33.609Z,6.60
2017-11-22T03:43:01.196Z,5.93
2017-11-22T03:45:28.778Z,5.90
2017-11-22T03:47:56.372Z,5.95
2017-11-22T03:50:29.615Z,5.57
2017-11-22T03:53:02.802Z,5.35
2017-11-22T03:55:30.367Z,5.28
2017-11-22T03:57:58.867Z,5.45
2017-11-22T04:00:30.358Z,5.18
2017-11-22T04:03:03.526Z,5.15
2017-11-22T04:05:32.918Z,5.07
2017-11-22T04:08:00.478Z,5.25
2017-11-22T04:10:28.042Z,4.97
2017-11-22T04:12:55.618Z,5.12
2017-11-22T04:15:23.193Z,5.18
2017-11-22T04:17:54.710Z,4.37
2017-11-22T04:20:28.693Z,5.62
2017-11-22T04:22:56.296Z,5.40
2017-11-22T04:25:23.823Z,5.65
2017-11-22T04:27:52.163Z,5.32
2017-11-22T04:30:19.730Z,5.47
2017-11-22T04:32:47.291Z,5.60
2017-11-22T04:35:14.905Z,5.62
2017-11-22T04:37:43.242Z,5.35
2017-11-22T04:40:10.800Z,5.03
2017-11-22T04:42:38.361Z,5.82
2017-11-22T04:45:05.910Z,5.50
2017-11-22T04:47:33.517Z,5.32
2017-11-22T04:50:01.095Z,6.20
2017-11-22T04:52:28.662Z,6.72
2017-11-22T04:54:56.187Z,6.90
2017-11-22T04:57:23.781Z,7.57
2017-11-22T04:59:51.316Z,7.93
2017-11-22T05:02:19.678Z,9.80
2017-11-22T05:04:47.249Z,9.80
2017-11-22T05:07:14.847Z,9.43
2017-11-22T05:09:42.629Z,10.93
2017-11-22T05:12:10.201Z,10.05
2017-11-22T05:14:37.754Z,10.60
2017-11-22T05:17:11.981Z,9.40
2017-11-22T05:19:39.550Z,9.10
2017-11-22T05:22:07.043Z,9.15
2017-11-22T05:24:34.617Z,8.95
2017-11-22T05:27:02.183Z,8.02
2017-11-22T05:29:30.066Z,8.25
2017-11-22T05:31:57.634Z,8.77
2017-11-22T05:34:25.198Z,8.73
2017-11-22T05:36:52.761Z,7.70
2017-11-22T05:39:20.325Z,7.82
2017-11-22T05:41:47.892Z,6.55
2017-11-22T05:44:15.459Z,6.65
2017-11-22T05:46:43.056Z,6.93
2017-11-22T05:49:10.622Z,6.70
2017-11-22T05:51:38.194Z,6.10
2017-11-22T05:54:05.764Z,7.00
2017-11-22T05:56:33.311Z,7.30
2017-11-22T05:59:00.895Z,7.82
2017-11-22T06:01:28.427Z,7.72
2017-11-22T06:03:55.960Z,6.82
2017-11-22T06:06:24.261Z,7.18
2017-11-22T06:08:51.830Z,7.68
2017-11-22T06:11:19.399Z,7.35
2017-11-22T06:13:46.965Z,7.35
2017-11-22T06:16:14.534Z,8.18
2017-11-22T06:18:42.152Z,8.35
2017-11-22T06:21:09.740Z,8.77
2017-11-22T06:23:37.312Z,8.90
2017-11-22T06:26:06.800Z,9.35
2017-11-22T06:28:34.375Z,8.68
2017-11-22T06:31:01.943Z,13.07
2017-11-22T06:33:29.469Z,11.38
2017-11-22T06:35:57.044Z,9.98
2017-11-22T06:38:24.627Z,9.90
2017-11-22T06:40:52.195Z,9.55
2017-11-22T06:43:20.554Z,9.65
2017-11-22T06:45:48.194Z,10.27
2017-11-22T06:48:15.771Z,9.80
2017-11-22T06:50:43.293Z,9.50
2017-11-22T06:53:10.881Z,9.32
2017-11-22T06:55:38.446Z,8.52
2017-11-22T06:58:06.013Z,9.10
2017-11-22T07:00:33.590Z,10.00
2017-11-22T07:03:01.126Z,10.88
2017-11-22T07:05:28.707Z,12.25
2017-11-22T07:07:56.271Z,11.93
2017-11-22T07:10:23.850Z,13.48
2017-11-22T07:12:51.451Z,13.10
2017-11-22T07:15:19.020Z,13.00
2017-11-22T07:17:50.446Z,12.98
2017-11-22T07:20:18.013Z,14.32
2017-11-22T07:22:45.582Z,14.32
2017-11-22T07:25:13.110Z,13.05
2017-11-22T07:27:41.459Z,13.27
2017-11-22T07:30:08.997Z,14.90
2017-11-22T07:32:36.569Z,15.13
2017-11-22T07:35:04.145Z,16.55
2017-11-22T07:37:36.524Z,20.85
2017-11-22T07:40:04.065Z,16.15
2017-11-22T07:42:31.635Z,16.20
2017-11-22T07:44:59.388Z,16.08
2017-11-22T07:47:26.966Z,15.60
2017-11-22T07:49:54.537Z,38.72
2017-11-22T07:52:22.929Z,15.32
2017-11-22T07:54:50.497Z,15.20
2017-11-22T07:57:18.065Z,14.55
2017-11-22T07:59:45.630Z,14.85
2017-11-22T08:02:13.195Z,14.18
2017-11-22T08:04:40.735Z,16.20
2017-11-22T08:07:08.318Z,18.67
2017-11-22T08:09:35.871Z,16.70
2017-11-22T08:12:03.494Z,17.55
2017-11-22T08:14:31.069Z,17.10
2017-11-22T08:17:01.141Z,17.92
2017-11-22T08:19:28.714Z,16.73
2017-11-22T08:21:56.286Z,24.02
2017-11-22T08:24:23.848Z,18.30
2017-11-22T08:26:51.414Z,54.65
2017-11-22T08:29:18.986Z,13.80
2017-11-22T08:31:47.284Z,15.05
2017-11-22T08:34:14.861Z,15.25
2017-11-22T08:36:42.390Z,19.02
2017-11-22T08:39:09.974Z,15.27
2017-11-22T08:41:37.542Z,17.33
2017-11-22T08:44:07.054Z,19.50
2017-11-22T08:46:34.636Z,23.87
2017-11-22T08:49:02.201Z,17.45
2017-11-22T08:51:29.813Z,38.85
2017-11-22T08:53:57.387Z,23.10
2017-11-22T08:56:30.725Z,19.85
2017-11-22T08:58:58.319Z,22.45
2017-11-22T09:01:25.887Z,16.05
2017-11-22T09:03:53.459Z,15.90
2017-11-22T09:06:26.568Z,19.75
2017-11-22T09:08:54.969Z,15.75
2017-11-22T09:11:22.551Z,18.33
2017-11-22T09:13:50.087Z,14.00
2017-11-22T09:16:17.654Z,13.88
2017-11-22T09:19:00.030Z,12.77
2017-11-22T09:21:27.626Z,11.02
2017-11-22T09:23:55.229Z,11.18
2017-11-22T09:26:22.771Z,11.65
2017-11-22T09:28:50.345Z,10.18
2017-11-22T09:31:24.440Z,11.45
2017-11-22T09:33:58.322Z,10.88
2017-11-22T09:36:27.623Z,10.15
2017-11-22T09:38:55.154Z,8.65
2017-11-22T09:41:22.738Z,8.45
2017-11-22T09:43:50.328Z,8.68
2017-11-22T09:46:18.410Z,8.98
2017-11-22T09:48:46.043Z,9.90
2017-11-22T09:51:13.641Z,10.30
2017-11-22T09:53:41.406Z,11.30
2017-11-22T09:56:09.026Z,11.00
2017-11-22T09:58:36.564Z,12.40
2017-11-22T10:01:04.140Z,10.95
2017-11-22T10:03:31.712Z,10.32
2017-11-22T10:05:59.289Z,10.95
2017-11-22T10:08:26.868Z,9.32
2017-11-22T10:10:54.444Z,10.20
2017-11-22T10:13:22.211Z,9.70
2017-11-22T10:15:49.981Z,9.40
2017-11-22T10:18:17.553Z,9.80
2017-11-22T10:20:51.571Z,10.35
2017-11-22T10:23:24.895Z,9.40
2017-11-22T10:25:52.501Z,9.88
2017-11-22T10:28:20.070Z,8.90
2017-11-22T10:30:47.660Z,8.48
2017-11-22T10:33:15.249Z,8.93
2017-11-22T10:35:42.825Z,9.15
2017-11-22T10:38:15.245Z,9.38
2017-11-22T10:40:42.818Z,9.13
2017-11-22T10:43:10.397Z,8.30
2017-11-22T10:45:38.045Z,9.52
2017-11-22T10:48:06.313Z,9.50
2017-11-22T10:50:34.070Z,8.32
2017-11-22T10:53:01.638Z,9.23
2017-11-22T10:55:29.218Z,9.52
2017-11-22T10:57:56.865Z,20.10
2017-11-22T11:00:24.441Z,17.50
2017-11-22T11:02:52.823Z,16.20
2017-11-22T11:05:20.402Z,9.77
2017-11-22T11:07:48.191Z,10.20
2017-11-22T11:10:16.354Z,12.07
2017-11-22T11:12:43.955Z,10.65
2017-11-22T11:15:11.561Z,9.57
2017-11-22T11:17:39.130Z,13.13
2017-11-22T11:20:07.849Z,11.40
2017-11-22T11:22:35.425Z,13.75
2017-11-22T11:25:03.001Z,8.65
2017-11-22T11:27:30.532Z,10.50
2017-11-22T11:29:58.073Z,9.25
2017-11-22T11:32:25.663Z,9.55
2017-11-22T11:34:53.214Z,12.45
2017-11-22T11:37:20.824Z,12.20
2017-11-22T11:39:48.412Z,21.30
2017-11-22T11:42:16.202Z,10.65
2017-11-22T11:44:43.809Z,9.85
2017-11-22T11:47:11.348Z,10.13
2017-11-22T11:49:38.974Z,7.70
2017-11-22T11:52:06.627Z,9.35
2017-11-22T11:54:34.162Z,8.13
2017-11-22T11:57:01.797Z,9.02
2017-11-22T11:59:29.369Z,9.80
2017-11-22T12:01:57.065Z,9.60
2017-11-22T12:04:24.592Z,9.95
2017-11-22T12:06:52.201Z,6.82
2017-11-22T12:09:19.736Z,7.50
2017-11-22T12:11:47.306Z,7.70
2017-11-22T12:14:15.993Z,7.50
2017-11-22T12:16:43.558Z,8.02
2017-11-22T12:19:11.198Z,6.60
2017-11-22T12:21:39.693Z,7.47
2017-11-22T12:24:08.158Z,6.90
2017-11-22T12:26:35.743Z,6.72
2017-11-22T12:29:03.334Z,6.50
2017-11-22T12:31:30.893Z,6.80
2017-11-22T12:33:58.463Z,8.40
2017-11-22T12:36:25.993Z,7.12
2017-11-22T12:38:53.573Z,12.02
2017-11-22T12:41:21.143Z,7.37
2017-11-22T12:43:48.751Z,7.10
2017-11-22T12:46:16.514Z,7.20
2017-11-22T12:48:44.085Z,7.62
2017-11-22T12:51:11.657Z,6.55
2017-11-22T12:53:39.222Z,6.65
2017-11-22T12:56:06.744Z,6.65
2017-11-22T12:58:35.150Z,6.40
2017-11-22T13:01:02.773Z,5.82
2017-11-22T13:03:30.355Z,5.62
2017-11-22T13:05:57.938Z,7.28
2017-11-22T13:08:25.515Z,7.12
2017-11-22T13:10:57.872Z,7.53
2017-11-22T13:13:25.448Z,7.25
2017-11-22T13:15:53.034Z,7.12
2017-11-22T13:18:20.619Z,7.68
2017-11-22T13:20:48.193Z,22.75
2017-11-22T13:23:15.770Z,14.80
2017-11-22T13:25:43.324Z,10.27
2017-11-22T13:28:10.879Z,13.75
2017-11-22T13:30:38.405Z,13.98
2017-11-22T13:33:05.950Z,26.05
2017-11-22T13:35:34.281Z,18.33
2017-11-22T13:38:01.877Z,12.50
2017-11-22T13:40:29.435Z,51.30
2017-11-22T13:42:57.054Z,16.12
2017-11-22T13:45:24.625Z,11.00
2017-11-22T13:47:52.226Z,13.20
2017-11-22T13:50:19.817Z,10.55
2017-11-22T13:52:47.394Z,10.40
2017-11-22T13:55:14.973Z,26.33
2017-11-22T13:57:42.630Z,21.30
2017-11-22T14:00:11.058Z,13.05
2017-11-22T14:02:39.381Z,27.02
2017-11-22T14:05:06.973Z,78.68
2017-11-22T14:07:34.577Z,21.73
2017-11-22T14:10:02.768Z,12.13
2017-11-22T14:12:30.392Z,11.02
2017-11-22T14:14:58.025Z,17.55
2017-11-22T14:17:25.618Z,15.40
2017-11-22T14:19:53.201Z,13.88
2017-11-22T14:22:20.874Z,14.73
2017-11-22T14:24:48.727Z,13.68
2017-11-22T14:27:16.316Z,14.35
2017-11-22T14:29:43.939Z,12.37
2017-11-22T14:32:11.480Z,12.20
2017-11-22T14:34:39.092Z,16.65
2017-11-22T14:37:06.771Z,13.62
2017-11-22T14:39:34.337Z,11.68
2017-11-22T14:42:01.938Z,12.73
2017-11-22T14:44:31.729Z,10.75
2017-11-22T14:47:00.120Z,10.18
2017-11-22T14:49:28.546Z,10.60
2017-11-22T14:51:56.913Z,12.10
2017-11-22T14:54:24.666Z,10.68
2017-11-22T14:56:52.271Z,8.90
2017-11-22T14:59:20.714Z,11.27
2017-11-22T15:01:48.294Z,10.00
2017-11-22T15:04:15.903Z,9.38
2017-11-22T15:06:43.539Z,9.13
2017-11-22T15:09:11.192Z,9.98
2017-11-22T15:11:38.786Z,14.80
2017-11-22T15:14:06.386Z,9.75
2017-11-22T15:16:33.968Z,11.70
2017-11-22T15:19:01.723Z,10.38
2017-11-22T15:21:29.279Z,14.93
2017-11-22T15:23:58.048Z,13.25
2017-11-22T15:26:25.673Z,12.52
2017-11-22T15:28:53.225Z,12.07
2017-11-22T15:31:20.818Z,14.18
2017-11-22T15:33:49.507Z,19.50
2017-11-22T15:36:17.134Z,20.88
2017-11-22T15:38:44.688Z,20.40
2017-11-22T15:41:12.288Z,29.35
2017-11-22T15:43:39.864Z,27.13
2017-11-22T15:46:07.654Z,19.80
2017-11-22T15:48:35.347Z,18.48
2017-11-22T15:51:02.961Z,16.65
2017-11-22T15:53:30.554Z,17.40
2017-11-22T15:55:58.140Z,21.08
2017-11-22T15:58:26.494Z,18.90
2017-11-22T16:00:54.258Z,20.02
2017-11-22T16:03:21.843Z,24.77
2017-11-22T16:05:49.449Z,21.30
2017-11-22T16:08:17.050Z,20.30
2017-11-22T16:10:44.602Z,23.50
2017-11-22T16:13:12.193Z,17.80
2017-11-22T16:15:39.791Z,18.23
2017-11-22T16:18:07.373Z,20.20
2017-11-22T16:20:34.974Z,26.25
2017-11-22T16:23:02.564Z,19.95
2017-11-22T16:25:30.137Z,20.48
2017-11-22T16:27:57.744Z,22.90
2017-11-22T16:30:25.326Z,22.45
2017-11-22T16:32:52.942Z,19.15
2017-11-22T16:35:20.534Z,21.05
2017-11-22T16:37:48.877Z,32.17
2017-11-22T16:40:16.506Z,23.98
2017-11-22T16:42:44.165Z,22.85
2017-11-22T16:45:11.878Z,36.50
2017-11-22T16:47:39.641Z,30.62
2017-11-22T16:50:07.394Z,32.72
2017-11-22T16:52:38.127Z,34.13
2017-11-22T16:55:19.476Z,30.60
2017-11-22T16:57:47.835Z,31.90
2017-11-22T17:00:19.917Z,37.75
2017-11-22T17:02:47.511Z,29.15
2017-11-22T17:05:15.795Z,22.62
2017-11-22T17:07:43.516Z,18.15
2017-11-22T17:10:11.132Z,18.17
2017-11-22T17:12:38.687Z,15.27
2017-11-22T17:15:06.328Z,15.20
2017-11-22T17:17:33.941Z,15.15
2017-11-22T17:20:01.548Z,15.57
2017-11-22T17:22:29.144Z,14.18
2017-11-22T17:24:56.729Z,20.40
2017-11-22T17:27:24.301Z,15.65
2017-11-22T17:29:51.834Z,16.67
2017-11-22T17:32:19.375Z,19.60
2017-11-22T17:34:47.696Z,16.15
2017-11-22T17:37:15.277Z,15.57
2017-11-22T17:39:42.967Z,15.98
2017-11-22T17:42:10.556Z,15.73
2017-11-22T17:44:38.097Z,14.95
2017-11-22T17:47:06.480Z,15.02
2017-11-22T17:49:34.135Z,14.73
2017-11-22T17:52:01.734Z,14.00
2017-11-22T17:54:29.323Z,14.15
2017-11-22T17:56:56.912Z,12.40
2017-11-22T17:59:24.453Z,13.85
2017-11-22T18:01:52.037Z,15.20
2017-11-22T18:04:19.633Z,14.40
2017-11-22T18:06:48.093Z,13.60
2017-11-22T18:09:16.478Z,14.30
2017-11-22T18:11:44.838Z,15.65
2017-11-22T18:14:13.163Z,12.95
2017-11-22T18:16:40.819Z,14.52
2017-11-22T18:19:08.410Z,16.05
2017-11-22T18:21:36.026Z,15.32
2017-11-22T18:24:03.634Z,14.70
2017-11-22T18:26:31.216Z,15.30
2017-11-22T18:28:58.789Z,14.65
2017-11-22T18:31:26.378Z,14.10
2017-11-22T18:33:53.966Z,13.77
2017-11-22T18:36:21.537Z,17.05
2017-11-22T18:38:49.128Z,37.88
2017-11-22T18:41:16.693Z,22.42
2017-11-22T18:43:45.043Z,18.90
2017-11-22T18:46:12.675Z,18.60
2017-11-22T18:48:40.258Z,16.52
2017-11-22T18:51:07.872Z,18.10
2017-11-22T18:53:35.428Z,17.30
2017-11-22T18:56:03.009Z,17.35
2017-11-22T18:58:30.644Z,16.60
2017-11-22T19:00:58.255Z,16.10
2017-11-22T19:03:25.858Z,15.65
2017-11-22T19:05:53.446Z,16.25
2017-11-22T19:08:21.077Z,14.65
2017-11-22T19:10:48.612Z,16.45
2017-11-22T19:13:16.198Z,14.38
2017-11-22T19:15:44.509Z,14.73
2017-11-22T19:18:12.110Z,15.32
2017-11-22T19:20:39.730Z,15.80
2017-11-22T19:23:07.311Z,15.95
2017-11-22T19:25:34.852Z,15.57
2017-11-22T19:28:02.445Z,16.50
2017-11-22T19:30:30.037Z,14.85
2017-11-22T19:32:57.654Z,15.52
2017-11-22T19:35:26.161Z,17.25
2017-11-22T19:37:54.049Z,18.70
2017-11-22T19:40:21.605Z,18.35
2017-11-22T19:42:49.945Z,18.15
2017-11-22T19:45:17.519Z,17.15
2017-11-22T19:47:45.098Z,16.90
2017-11-22T19:50:12.770Z,18.80
2017-11-22T19:52:40.383Z,18.02
2017-11-22T19:55:07.979Z,19.15
2017-11-22T19:57:35.533Z,17.48
2017-11-22T20:00:03.119Z,16.42
2017-11-22T20:02:31.558Z,14.27
2017-11-22T20:04:59.221Z,14.50
2017-11-22T20:07:38.658Z,16.02
2017-11-22T20:10:06.199Z,17.70
2017-11-22T20:12:33.790Z,18.67
2017-11-22T20:15:01.399Z,20.02
2017-11-22T20:17:29.009Z,22.33
2017-11-22T20:19:56.650Z,19.02
2017-11-22T20:22:24.232Z,18.02
2017-11-22T20:24:52.388Z,17.25
2017-11-22T20:27:20.181Z,16.08
2017-11-22T20:29:47.817Z,17.27
2017-11-22T20:32:16.357Z,15.02
2017-11-22T20:34:43.930Z,15.25
2017-11-22T20:37:11.518Z,13.90
2017-11-22T20:39:39.050Z,14.95
2017-11-22T20:42:06.626Z,15.02
2017-11-22T20:44:34.199Z,14.87
2017-11-22T20:47:01.830Z,14.40
2017-11-22T20:49:30.314Z,13.52
2017-11-22T20:51:57.897Z,13.70
2017-11-22T20:54:25.495Z,14.15
2017-11-22T20:56:53.071Z,14.45
2017-11-22T20:59:21.380Z,14.13
2017-11-22T21:01:49.073Z,12.70
2017-11-22T21:04:16.646Z,12.75
2017-11-22T21:06:44.218Z,13.65
2017-11-22T21:09:11.807Z,12.73
2017-11-22T21:11:39.700Z,13.75
2017-11-22T21:14:07.301Z,13.05
2017-11-22T21:16:34.938Z,12.02
2017-11-22T21:19:02.689Z,12.48
2017-11-22T21:21:30.253Z,12.40
2017-11-22T21:23:57.887Z,12.52
2017-11-22T21:26:25.470Z,12.25
2017-11-22T21:28:53.058Z,13.65
2017-11-22T21:31:20.682Z,13.13
2017-11-22T21:33:48.342Z,12.52
2017-11-22T21:36:15.926Z,12.10
2017-11-22T21:38:47.477Z,12.77
2017-11-22T21:41:15.889Z,12.63
2017-11-22T21:43:43.786Z,12.43
2017-11-22T21:46:11.481Z,11.48
2017-11-22T21:48:39.412Z,12.80
2017-11-22T21:51:07.002Z,11.38
2017-11-22T21:53:34.569Z,11.35
2017-11-22T21:56:02.268Z,11.73
2017-11-22T21:58:29.805Z,12.40
2017-11-22T22:00:57.387Z,12.80
2017-11-22T22:03:25.012Z,12.82
2017-11-22T22:05:52.594Z,11.02
2017-11-22T22:08:20.103Z,12.32
2017-11-22T22:10:47.690Z,13.35
2017-11-22T22:13:15.275Z,12.25
2017-11-22T22:15:42.845Z,12.77
2017-11-22T22:18:10.386Z,12.85
2017-11-22T22:20:37.975Z,14.20
2017-11-22T22:23:05.603Z,14.30
2017-11-22T22:25:33.222Z,15.13
2017-11-22T22:28:00.990Z,13.35
2017-11-22T22:30:28.699Z,16.20
2017-11-22T22:32:56.278Z,15.27
2017-11-22T22:35:23.814Z,16.30
2017-11-22T22:37:51.401Z,14.20
2017-11-22T22:40:20.129Z,15.95
2017-11-22T22:42:47.706Z,15.68
2017-11-22T22:45:15.582Z,14.85
2017-11-22T22:47:43.194Z,15.35
2017-11-22T22:50:10.777Z,13.80
2017-11-22T22:52:38.350Z,13.48
2017-11-22T22:55:05.885Z,14.90
2017-11-22T22:57:33.465Z,14.30
2017-11-22T23:00:01.036Z,15.25
2017-11-22T23:02:28.591Z,15.07
2017-11-22T23:04:56.198Z,14.25
2017-11-22T23:07:23.778Z,14.20
2017-11-22T23:09:51.385Z,16.08
2017-11-22T23:12:18.961Z,15.93
2017-11-22T23:14:46.537Z,14.00
2017-11-22T23:17:14.123Z,14.70
2017-11-22T23:19:41.707Z,15.25
2017-11-22T23:22:09.243Z,16.17
2017-11-22T23:24:36.834Z,15.95
2017-11-22T23:27:04.421Z,16.55
2017-11-22T23:29:32.014Z,15.70
2017-11-22T23:31:59.609Z,15.25
2017-11-22T23:34:27.178Z,15.32
2017-11-22T23:36:54.784Z,16.00
2017-11-22T23:39:22.368Z,15.05
2017-11-22T23:41:49.922Z,14.68
2017-11-22T23:44:17.509Z,14.98
2017-11-22T23:46:45.100Z,14.73
2017-11-22T23:49:12.850Z,15.35
2017-11-22T23:51:41.963Z,14.32
2017-11-22T23:54:10.585Z,13.45
2017-11-22T23:56:38.973Z,14.18
2017-11-22T23:59:06.614Z,14.13
